Time;durP1;ratioP1;P1;durP2;ratioP2;P2;SDS_P1;SDS_P2;PMS_P1;PMS_P2;Temp;Humidity;BMP_temperature;BMP_pressure;BME280_temperature;BME280_humidity;BME280_pressure;Samples;Min_cycle;Max_cycle;Signal;HPM_P1;HPM_P2
2021/12/13 00:00:59;;;;;;;7.23;5.23;;;;;;;6.09;100.00;101433.38;4998664;28;20890;-60
2021/12/13 00:03:27;;;;;;;6.73;5.27;;;;;;;6.08;100.00;101429.94;4997214;28;20247;-57
2021/12/13 00:06:00;;;;;;;7.67;5.90;;;;;;;6.09;100.00;101433.38;4999798;28;20220;-57
2021/12/13 00:08:30;;;;;;;8.37;6.33;;;;;;;6.09;100.00;101439.41;5002001;28;20306;-58
2021/12/13 00:11:01;;;;;;;6.70;5.57;;;;;;;6.07;100.00;101432.47;5004476;28;20198;-57
2021/12/13 00:13:39;;;;;;;10.33;6.33;;;;;;;6.08;100.00;101434.19;4996942;28;20259;-58
2021/12/13 00:16:07;;;;;;;9.67;6.87;;;;;;;6.05;100.00;101429.84;4997443;28;20647;-59
2021/12/13 00:18:37;;;;;;;8.67;6.40;;;;;;;6.03;100.00;101423.81;5002905;28;20212;-58
2021/12/13 00:21:16;;;;;;;8.93;6.30;;;;;;;6.04;100.00;101430.69;5009410;28;20618;-59
2021/12/13 00:24:01;;;;;;;8.93;6.90;;;;;;;6.02;100.00;101424.63;4995932;28;20210;-57
2021/12/13 00:26:39;;;;;;;9.23;6.73;;;;;;;6.01;100.00;101422.88;4993751;28;20214;-59
2021/12/13 00:29:19;;;;;;;7.77;6.23;;;;;;;6.01;100.00;101419.47;5001007;28;20238;-58
2021/12/13 00:31:59;;;;;;;7.87;6.20;;;;;;;6.02;100.00;101428.91;4996044;28;20199;-57
2021/12/13 00:34:46;;;;;;;7.07;5.93;;;;;;;6.03;100.00;101428.94;4993942;28;20272;-59
2021/12/13 00:37:20;;;;;;;6.43;5.77;;;;;;;6.04;100.00;101434.97;4997104;28;20435;-57
2021/12/13 00:39:45;;;;;;;7.70;5.60;;;;;;;6.05;100.00;101431.56;5007203;28;20245;-58
2021/12/13 00:42:13;;;;;;;6.50;5.20;;;;;;;6.04;100.00;101428.13;4996968;28;20195;-59
2021/12/13 00:44:47;;;;;;;6.90;5.03;;;;;;;6.05;100.00;101436.72;5006436;28;20210;-58
2021/12/13 00:47:19;;;;;;;7.23;4.70;;;;;;;6.06;100.00;101441.00;5004307;28;20220;-57
2021/12/13 00:49:50;;;;;;;6.47;5.13;;;;;;;6.06;100.00;101435.84;4991825;28;20280;-59
2021/12/13 00:52:18;;;;;;;6.10;4.80;;;;;;;6.08;100.00;101445.38;5007994;28;20214;-58
2021/12/13 00:54:45;;;;;;;6.53;5.00;;;;;;;6.07;100.00;101443.63;4999998;28;20309;-58
2021/12/13 00:57:32;;;;;;;6.47;4.60;;;;;;;6.05;100.00;101453.00;5007847;28;20218;-58
2021/12/13 01:00:04;;;;;;;5.67;4.83;;;;;;;6.05;100.00;101447.84;5002714;28;20695;-57
2021/12/13 01:02:48;;;;;;;5.70;4.50;;;;;;;6.04;100.00;101442.69;5003347;28;20224;-58
2021/12/13 01:05:14;;;;;;;6.00;5.00;;;;;;;6.02;100.00;101437.47;5100265;27;20252;-59
2021/12/13 01:07:58;;;;;;;7.47;5.03;;;;;;;6.01;100.00;101435.72;4996379;28;20737;-59
2021/12/13 01:10:42;;;;;;;4.70;4.00;;;;;;;6.01;100.00;101437.44;5000275;28;20639;-59
2021/12/13 01:13:32;;;;;;;6.07;4.60;;;;;;;6.00;100.00;101438.28;4996577;28;20195;-58
2021/12/13 01:16:20;;;;;;;5.67;4.73;;;;;;;6.00;100.00;101435.69;4999254;28;20199;-60
2021/12/13 01:19:25;;;;;;;6.07;4.53;;;;;;;5.99;100.00;101437.34;5003441;28;20261;-56
2021/12/13 01:22:01;;;;;;;6.30;4.50;;;;;;;5.95;100.00;101432.97;5006780;28;20720;-58
2021/12/13 01:25:03;;;;;;;5.20;4.13;;;;;;;5.95;100.00;101433.81;5007977;28;20188;-59
2021/12/13 01:27:34;;;;;;;5.97;4.33;;;;;;;5.97;100.00;101439.03;5012614;28;20742;-59
2021/12/13 01:30:00;;;;;;;6.77;5.10;;;;;;;5.95;100.00;101433.81;5001675;28;20249;-58
2021/12/13 01:32:35;;;;;;;5.07;4.40;;;;;;;5.94;100.00;101438.94;5000094;28;20215;-58
2021/12/13 01:35:01;;;;;;;5.70;4.60;;;;;;;5.94;100.00;101446.66;4994233;28;20197;-57
2021/12/13 01:37:31;;;;;;;5.13;4.57;;;;;;;5.94;100.00;101444.06;5002762;28;20214;-57
2021/12/13 01:40:05;;;;;;;4.80;4.30;;;;;;;5.92;100.00;101449.16;5047419;28;20231;-58
2021/12/13 01:42:34;;;;;;;5.17;4.60;;;;;;;5.92;100.00;101445.72;5009013;28;20198;-57
2021/12/13 01:45:05;;;;;;;5.73;4.77;;;;;;;5.91;100.00;101442.25;5006463;28;20275;-58
2021/12/13 01:47:46;;;;;;;5.10;4.60;;;;;;;5.94;100.00;101441.50;5003794;28;20234;-59
2021/12/13 01:50:17;;;;;;;5.13;4.63;;;;;;;5.94;100.00;101433.78;5005445;28;20563;-59
2021/12/13 01:52:46;;;;;;;6.50;4.47;;;;;;;5.93;100.00;101439.75;5002294;28;20721;-61
2021/12/13 01:55:23;;;;;;;5.37;4.80;;;;;;;5.91;100.00;101446.56;5029094;28;20645;-58
2021/12/13 01:58:07;;;;;;;4.93;4.33;;;;;;;5.89;100.00;101451.66;5003617;28;20254;-60
2021/12/13 02:01:08;;;;;;;6.30;4.80;;;;;;;5.90;100.00;101447.38;5002885;28;20181;-58
2021/12/13 02:03:59;;;;;;;5.10;4.50;;;;;;;5.91;100.00;101447.41;4996722;28;20210;-57
2021/12/13 02:06:30;;;;;;;5.27;4.40;;;;;;;5.91;100.00;101449.97;4996204;28;20545;-58
2021/12/13 02:09:00;;;;;;;5.17;4.17;;;;;;;5.90;100.00;101448.22;4997002;28;20658;-57
2021/12/13 02:11:27;;;;;;;5.63;4.50;;;;;;;5.94;100.00;101451.78;5013522;28;20197;-59
2021/12/13 02:14:08;;;;;;;5.10;4.27;;;;;;;5.95;100.00;101450.97;4999597;28;20211;-58
2021/12/13 02:19:53;;;;;;;5.20;4.20;;;;;;;5.93;100.00;101444.91;4995546;28;20201;-60
2021/12/13 02:22:40;;;;;;;4.53;4.00;;;;;;;5.94;100.00;101447.50;4997189;28;20662;-58
2021/12/13 02:25:22;;;;;;;4.50;4.10;;;;;;;5.97;100.00;101458.69;5003568;28;20195;-60
2021/12/13 02:28:08;;;;;;;4.73;4.33;;;;;;;5.98;100.00;101473.28;5004035;28;20680;-59
2021/12/13 02:30:45;;;;;;;4.70;3.57;;;;;;;5.99;100.00;101468.19;5005234;28;20192;-57
2021/12/13 02:33:19;;;;;;;3.97;3.50;;;;;;;6.00;100.00;101469.97;5000984;28;20194;-59
2021/12/13 02:35:49;;;;;;;5.67;3.97;;;;;;;6.02;100.00;101464.88;5002317;28;20200;-59
2021/12/13 02:38:16;;;;;;;4.37;3.80;;;;;;;6.02;100.00;101462.31;4999805;28;20270;-60
2021/12/13 02:40:42;;;;;;;4.43;3.90;;;;;;;6.03;100.00;101459.78;5001054;28;20199;-58
2021/12/13 02:43:11;;;;;;;5.77;4.87;;;;;;;6.04;100.00;101460.66;5002385;28;20279;-58
2021/12/13 02:45:45;;;;;;;4.17;3.77;;;;;;;6.02;100.00;101460.59;5001230;28;20617;-59
2021/12/13 02:48:25;;;;;;;4.30;3.90;;;;;;;6.02;100.00;101470.88;4995422;28;21037;-59
2021/12/13 02:51:02;;;;;;;4.57;3.90;;;;;;;6.00;100.00;101472.53;5000218;28;20191;-59
2021/12/13 02:53:43;;;;;;;4.30;3.90;;;;;;;6.03;100.00;101461.50;4993396;28;20181;-59
2021/12/13 02:56:10;;;;;;;4.10;3.70;;;;;;;6.03;100.00;101466.63;5010964;28;20665;-59
2021/12/13 02:58:37;;;;;;;4.40;3.80;;;;;;;6.04;100.00;101468.38;4999271;28;20315;-57
2021/12/13 03:01:11;;;;;;;3.80;3.47;;;;;;;6.07;100.00;101465.88;4997961;28;20233;-60
2021/12/13 03:03:44;;;;;;;4.00;3.60;;;;;;;6.07;100.00;101474.47;5016095;28;20556;-58
2021/12/13 03:06:12;;;;;;;3.60;3.30;;;;;;;6.06;100.00;101470.16;5009346;28;20193;-59
2021/12/13 03:08:45;;;;;;;4.07;3.67;;;;;;;6.07;100.00;101476.16;5004218;28;20218;-58
2021/12/13 03:11:23;;;;;;;3.63;3.33;;;;;;;6.05;100.00;101473.53;5006061;28;20214;-59
2021/12/13 03:13:59;;;;;;;4.60;3.90;;;;;;;6.06;100.00;101477.88;5013981;28;20191;-57
2021/12/13 03:16:51;;;;;;;4.37;3.60;;;;;;;6.05;100.00;101472.69;5005473;28;20212;-59
2021/12/13 03:19:39;;;;;;;4.20;3.87;;;;;;;6.03;100.00;101475.19;4999835;28;20219;-58
2021/12/13 03:22:21;;;;;;;5.73;4.20;;;;;;;6.02;100.00;101481.16;4998129;28;20201;-59
2021/12/13 03:25:06;;;;;;;6.33;4.30;;;;;;;6.01;100.00;101481.13;5004387;28;20215;-61
2021/12/13 03:27:53;;;;;;;4.73;4.30;;;;;;;6.00;100.00;101471.69;5007559;28;20209;-59
2021/12/13 03:30:27;;;;;;;4.40;4.00;;;;;;;5.97;100.00;101477.56;4995080;28;20202;-56
2021/12/13 03:33:00;;;;;;;5.40;4.60;;;;;;;5.96;100.00;101468.13;4994529;28;20203;-59
2021/12/13 03:35:58;;;;;;;5.43;4.63;;;;;;;5.93;100.00;101463.75;4998814;28;20232;-56
2021/12/13 03:38:33;;;;;;;4.63;4.07;;;;;;;5.91;100.00;101465.38;4998837;28;20233;-58
2021/12/13 03:41:06;;;;;;;4.17;3.77;;;;;;;5.90;100.00;101463.66;5001769;28;20648;-58
2021/12/13 03:43:43;;;;;;;4.10;3.70;;;;;;;5.89;100.00;101461.03;5004717;28;20191;-59
2021/12/13 03:46:12;;;;;;;4.80;4.30;;;;;;;5.87;100.00;101468.72;5001733;28;20586;-58
2021/12/13 03:48:40;;;;;;;3.97;3.57;;;;;;;5.84;100.00;101460.03;5000400;28;20189;-56
2021/12/13 03:51:14;;;;;;;5.83;4.23;;;;;;;5.85;100.00;101466.91;5003140;28;20201;-59
2021/12/13 03:53:45;;;;;;;4.47;4.07;;;;;;;5.84;100.00;101454.88;5003806;28;20192;-58
2021/12/13 03:56:18;;;;;;;4.60;4.10;;;;;;;5.83;100.00;101468.56;5000354;28;20193;-59
2021/12/13 03:58:51;;;;;;;3.63;3.30;;;;;;;5.82;100.00;101475.41;5008761;28;20224;-58
2021/12/13 04:01:28;;;;;;;4.43;4.03;;;;;;;5.81;100.00;101476.22;5002778;28;20559;-59
2021/12/13 04:03:58;;;;;;;4.77;4.30;;;;;;;5.79;100.00;101481.34;4998776;28;20224;-59
2021/12/13 04:06:24;;;;;;;4.47;4.00;;;;;;;5.79;100.00;101477.88;5006427;28;20207;-58
2021/12/13 04:08:53;;;;;;;4.17;3.70;;;;;;;5.79;100.00;101485.59;5017974;28;20659;-57
2021/12/13 04:11:22;;;;;;;4.50;4.00;;;;;;;5.79;100.00;101483.91;4994724;28;20300;-58
2021/12/13 04:14:06;;;;;;;4.67;4.17;;;;;;;5.81;100.00;101473.66;5011505;28;20192;-58
2021/12/13 04:16:48;;;;;;;4.30;3.90;;;;;;;5.78;100.00;101471.88;4993856;28;20218;-60
2021/12/13 04:19:18;;;;;;;4.13;3.57;;;;;;;5.79;100.00;101468.50;5015474;28;20294;-59
2021/12/13 04:21:52;;;;;;;5.07;3.97;;;;;;;5.78;100.00;101469.31;4992705;28;20209;-58
2021/12/13 04:24:27;;;;;;;4.83;4.00;;;;;;;5.79;100.00;101468.50;4997314;28;20637;-59
2021/12/13 04:26:58;;;;;;;4.50;3.90;;;;;;;5.82;100.00;101470.28;4995844;28;20221;-58
2021/12/13 04:29:28;;;;;;;3.87;3.57;;;;;;;5.84;100.00;101475.44;4998383;28;20205;-60
2021/12/13 04:31:55;;;;;;;3.63;3.33;;;;;;;5.86;100.00;101471.22;5020812;28;20194;-59
2021/12/13 04:34:23;;;;;;;4.07;3.67;;;;;;;5.88;100.00;101478.19;4998686;28;20202;-62
2021/12/13 04:36:51;;;;;;;4.30;3.90;;;;;;;5.90;100.00;101473.06;5003318;28;20208;-57
2021/12/13 04:39:31;;;;;;;3.97;3.57;;;;;;;5.93;100.00;101468.88;5001089;28;20209;-60
2021/12/13 04:42:03;;;;;;;4.50;3.97;;;;;;;5.94;100.00;101467.19;5005061;28;20247;-60
2021/12/13 04:44:52;;;;;;;3.87;3.57;;;;;;;5.93;100.00;101458.59;5005899;28;20237;-61
2021/12/13 04:47:43;;;;;;;4.47;3.70;;;;;;;5.94;100.00;101462.06;4997220;28;20206;-59
2021/12/13 04:50:17;;;;;;;4.63;3.90;;;;;;;5.92;100.00;101459.44;4994821;28;20197;-59
2021/12/13 04:52:45;;;;;;;4.20;3.80;;;;;;;5.88;100.00;101464.44;5001360;28;20230;-60
2021/12/13 04:55:27;;;;;;;3.93;3.63;;;;;;;5.86;100.00;101469.53;4996688;28;20280;-57
2021/12/13 04:57:56;;;;;;;3.97;3.57;;;;;;;5.85;100.00;101464.34;4992503;28;20217;-61
2021/12/13 05:00:25;;;;;;;4.90;3.77;;;;;;;5.85;100.00;101462.66;4993397;28;20252;-59
2021/12/13 05:02:58;;;;;;;3.87;3.50;;;;;;;5.84;100.00;101463.50;4997099;28;20281;-60
2021/12/13 05:05:23;;;;;;;4.57;3.73;;;;;;;5.83;100.00;101459.16;4991161;28;20193;-58
2021/12/13 05:07:51;;;;;;;4.17;3.77;;;;;;;5.83;100.00;101464.31;5000785;28;20208;-58
2021/12/13 05:10:17;;;;;;;4.43;3.50;;;;;;;5.83;100.00;101460.84;5003680;28;20187;-58
2021/12/13 05:13:09;;;;;;;4.30;3.53;;;;;;;5.83;100.00;101466.00;5011261;28;20602;-57
2021/12/13 05:15:39;;;;;;;3.53;3.23;;;;;;;5.82;100.00;101469.41;4993908;28;20193;-58
2021/12/13 05:18:16;;;;;;;4.37;3.50;;;;;;;5.83;100.00;101471.13;4997962;28;20221;-59
2021/12/13 05:20:42;;;;;;;3.80;3.37;;;;;;;5.83;100.00;101474.59;4993419;28;20191;-58
2021/12/13 05:23:14;;;;;;;3.43;2.97;;;;;;;5.82;100.00;101472.84;4997139;28;20499;-59
2021/12/13 05:25:46;;;;;;;4.50;3.77;;;;;;;5.83;100.00;101474.59;4998737;28;20581;-58
2021/12/13 05:28:16;;;;;;;3.50;3.20;;;;;;;5.85;100.00;101469.47;4994927;28;20218;-59
2021/12/13 05:30:49;;;;;;;3.67;3.30;;;;;;;5.84;100.00;101475.44;4996049;28;20186;-59
2021/12/13 05:33:18;;;;;;;3.13;2.80;;;;;;;5.84;100.00;101478.91;4993529;28;20627;-58
2021/12/13 05:35:48;;;;;;;3.23;2.93;;;;;;;5.86;100.00;101471.22;5002720;28;20201;-59
2021/12/13 05:38:32;;;;;;;3.57;3.23;;;;;;;5.88;100.00;101469.56;4994350;28;20218;-59
2021/12/13 05:41:00;;;;;;;3.50;3.20;;;;;;;5.88;100.00;101475.59;5005623;28;20190;-59
2021/12/13 05:43:25;;;;;;;4.90;3.30;;;;;;;5.88;100.00;101477.28;5013488;28;20682;-58
2021/12/13 05:45:59;;;;;;;3.30;2.77;;;;;;;5.88;100.00;101473.03;4997547;28;20188;-58
2021/12/13 05:48:33;;;;;;;3.20;2.90;;;;;;;5.87;100.00;101476.44;4998268;28;20210;-58
2021/12/13 05:51:02;;;;;;;2.90;2.70;;;;;;;5.84;100.00;101478.91;4992938;28;20188;-57
2021/12/13 05:53:34;;;;;;;2.63;2.43;;;;;;;5.82;100.00;101477.13;4994223;28;20348;-57
2021/12/13 05:56:10;;;;;;;4.00;3.03;;;;;;;5.77;100.00;101464.13;5002771;28;20209;-62
2021/12/13 05:58:53;;;;;;;3.93;3.50;;;;;;;5.71;100.00;101461.38;5001639;28;20209;-58
2021/12/13 06:01:24;;;;;;;4.23;3.23;;;;;;;5.62;100.00;101461.97;4996237;28;20187;-60
2021/12/13 06:04:12;;;;;;;4.37;2.83;;;;;;;5.54;100.00;101463.41;4997558;28;20204;-60
2021/12/13 06:07:39;;;;;;;3.30;2.93;;;;;;;5.45;100.00;101470.03;5011244;28;20281;-59
2021/12/13 06:10:08;;;;;;;4.63;3.10;;;;;;;5.39;100.00;101476.66;4948332;28;20204;-58
2021/12/13 06:12:48;;;;;;;4.07;2.77;;;;;;;5.34;100.00;101471.41;5006827;28;20227;-60
2021/12/13 06:15:16;;;;;;;3.63;3.27;;;;;;;5.28;100.00;101471.19;5014391;28;20561;-57
2021/12/13 06:17:46;;;;;;;5.23;3.53;;;;;;;5.21;100.00;101470.13;5007026;28;20268;-59
2021/12/13 06:20:20;;;;;;;4.03;3.60;;;;;;;5.12;100.00;101463.00;5006132;28;20587;-60
2021/12/13 06:22:47;;;;;;;4.03;3.63;;;;;;;5.01;100.00;101474.59;5015897;28;20214;-60
2021/12/13 06:25:17;;;;;;;4.43;3.23;;;;;;;4.91;100.00;101470.88;4994875;28;20195;-58
2021/12/13 06:27:47;;;;;;;5.03;3.60;;;;;;;4.83;100.00;101473.16;5015969;28;20280;-59
2021/12/13 06:30:23;;;;;;;3.90;3.40;;;;;;;4.75;100.00;101466.94;5025297;28;20531;-59
2021/12/13 06:33:04;;;;;;;4.70;4.20;;;;;;;4.68;100.00;101475.22;5058691;28;20961;-59
2021/12/13 06:35:32;;;;;;;5.57;4.27;;;;;;;4.61;100.00;101471.56;5038951;28;20181;-57
2021/12/13 06:38:00;;;;;;;4.67;4.27;;;;;;;4.57;100.00;101479.97;5000733;28;20216;-58
2021/12/13 06:40:29;;;;;;;5.20;4.70;;;;;;;4.58;100.00;101486.84;5009584;28;20571;-58
2021/12/13 06:43:00;;;;;;;5.30;4.80;;;;;;;4.60;100.00;101489.47;5016998;28;20207;-59
2021/12/13 06:45:32;;;;;;;6.80;5.10;;;;;;;4.64;100.00;101491.31;4998784;28;20201;-57
2021/12/13 06:48:03;;;;;;;5.53;4.93;;;;;;;4.67;100.00;101491.41;5001504;28;20208;-59
2021/12/13 06:50:35;;;;;;;5.83;4.37;;;;;;;4.71;100.00;101496.69;5017185;28;20191;-59
2021/12/13 06:53:19;;;;;;;5.23;4.73;;;;;;;4.73;100.00;101507.03;4996010;28;20560;-61
2021/12/13 06:55:46;;;;;;;5.77;4.77;;;;;;;4.72;100.00;101495.88;5000911;28;20195;-58
2021/12/13 06:58:17;;;;;;;4.57;4.10;;;;;;;4.75;100.00;101505.41;4989751;28;20229;-58
2021/12/13 07:00:44;;;;;;;5.30;4.43;;;;;;;4.77;100.00;101513.13;5005215;28;20195;-59
2021/12/13 07:03:17;;;;;;;6.63;5.33;;;;;;;4.78;100.00;101510.59;4993740;28;20206;-57
2021/12/13 07:05:48;;;;;;;5.43;4.93;;;;;;;4.81;100.00;101499.59;4990337;28;20216;-59
2021/12/13 07:08:34;;;;;;;5.63;4.97;;;;;;;4.81;100.00;101502.16;5009399;28;20298;-58
2021/12/13 07:11:06;;;;;;;5.57;4.70;;;;;;;4.80;100.00;101501.28;5015394;28;20244;-59
2021/12/13 07:13:58;;;;;;;5.60;4.63;;;;;;;4.80;100.00;101503.84;5028788;28;20183;-58
2021/12/13 07:16:30;;;;;;;6.07;5.47;;;;;;;4.83;100.00;101503.09;5014915;28;20677;-59
2021/12/13 07:19:08;;;;;;;6.70;5.10;;;;;;;4.90;100.00;101514.44;4999185;28;20207;-60
2021/12/13 07:21:50;;;;;;;5.30;4.80;;;;;;;4.97;100.00;101516.38;5019755;28;20279;-58
2021/12/13 07:24:27;;;;;;;4.50;4.10;;;;;;;5.04;100.00;101511.50;5025858;28;20200;-60
2021/12/13 07:27:06;;;;;;;4.40;3.90;;;;;;;5.13;100.00;101520.34;4999565;28;20675;-58
2021/12/13 07:29:43;;;;;;;4.90;4.37;;;;;;;5.19;100.00;101516.28;5018723;28;20640;-59
2021/12/13 07:32:17;;;;;;;6.20;4.50;;;;;;;5.27;100.00;101510.50;4999592;28;20241;-57
2021/12/13 07:35:07;;;;;;;4.73;4.20;;;;;;;5.30;100.00;101515.75;5004785;28;20211;-58
2021/12/13 07:37:54;;;;;;;5.20;4.70;;;;;;;5.36;100.00;101518.53;5020624;28;20269;-58
2021/12/13 07:40:19;;;;;;;5.07;4.57;;;;;;;5.40;100.00;101519.50;4990089;28;20560;-57
2021/12/13 07:43:03;;;;;;;4.80;4.20;;;;;;;5.44;100.00;101519.63;5001025;28;20194;-60
2021/12/13 07:45:47;;;;;;;5.37;4.37;;;;;;;5.49;100.00;101530.03;5019947;28;20189;-60
2021/12/13 07:48:41;;;;;;;6.00;4.70;;;;;;;5.54;100.00;101533.63;5003675;28;20211;-59
2021/12/13 07:51:16;;;;;;;5.90;4.63;;;;;;;5.54;100.00;101540.44;5006637;28;20292;-58
2021/12/13 07:53:50;;;;;;;4.53;4.13;;;;;;;5.55;100.00;101540.53;5019654;28;20262;-59
2021/12/13 07:56:39;;;;;;;6.40;4.00;;;;;;;5.54;100.00;101546.47;5018677;28;20200;-59
2021/12/13 07:59:14;;;;;;;6.70;3.90;;;;;;;5.56;100.00;101549.97;4995914;28;20218;-57
2021/12/13 08:01:48;;;;;;;5.17;3.83;;;;;;;5.59;100.00;101550.06;5010667;28;20307;-58
2021/12/13 08:04:18;;;;;;;5.50;3.87;;;;;;;5.64;100.00;101548.50;4997141;28;20213;-60
2021/12/13 08:06:49;;;;;;;4.57;4.13;;;;;;;5.71;100.00;101548.72;5002199;28;20223;-57
2021/12/13 08:09:21;;;;;;;5.10;4.20;;;;;;;5.76;100.00;101553.16;5035895;28;20196;-60
2021/12/13 08:11:53;;;;;;;5.93;4.90;;;;;;;5.84;100.00;101549.94;5013568;28;20609;-57
2021/12/13 08:14:40;;;;;;;6.63;5.17;;;;;;;5.91;100.00;101551.91;5008056;28;20661;-59
2021/12/13 08:17:16;;;;;;;6.43;5.67;;;;;;;5.97;100.00;101559.81;5006920;28;20219;-58
2021/12/13 08:19:44;;;;;;;7.10;5.30;;;;;;;6.03;100.00;101560.00;5025013;28;20230;-60
2021/12/13 08:22:17;;;;;;;6.63;5.40;;;;;;;6.10;100.00;101559.38;5024003;28;20200;-58
2021/12/13 08:24:47;;;;;;;6.13;5.53;;;;;;;6.15;100.00;101556.94;5010386;28;20182;-59
2021/12/13 08:27:25;;;;;;;6.60;5.90;;;;;;;6.21;100.00;101559.66;4990805;28;20913;-60
2021/12/13 08:30:01;;;;;;;8.07;6.00;;;;;;;6.27;100.00;101556.44;5007362;28;20638;-60
2021/12/13 08:32:27;;;;;;;7.67;5.60;;;;;;;6.35;100.00;101560.09;4997045;28;20237;-60
2021/12/13 08:34:59;;;;;;;6.67;5.50;;;;;;;6.47;100.00;101561.25;5101342;27;20250;-58
2021/12/13 08:37:31;;;;;;;6.67;5.83;;;;;;;6.55;100.00;101558.06;5007090;28;20578;-59
2021/12/13 08:40:18;;;;;;;6.07;5.23;;;;;;;6.69;100.00;101555.00;5007821;28;20664;-59
2021/12/13 08:42:45;;;;;;;7.23;6.07;;;;;;;6.79;100.00;101545.84;5004653;28;20213;-60
2021/12/13 08:45:12;;;;;;;7.87;6.60;;;;;;;6.88;100.00;101545.22;4997999;28;20353;-57
2021/12/13 08:47:55;;;;;;;7.03;6.33;;;;;;;6.97;100.00;101551.50;4988761;28;20203;-60
2021/12/13 08:50:26;;;;;;;6.80;5.47;;;;;;;7.05;100.00;101550.81;4993095;28;20273;-58
2021/12/13 08:53:05;;;;;;;7.07;5.33;;;;;;;7.13;100.00;101544.16;4994872;28;20480;-61
2021/12/13 08:55:35;;;;;;;7.30;5.40;;;;;;;7.21;100.00;101546.94;4993333;28;20203;-60
2021/12/13 08:58:14;;;;;;;5.63;5.07;;;;;;;7.27;100.00;101549.66;5006577;28;20662;-60
2021/12/13 09:00:54;;;;;;;6.00;5.00;;;;;;;7.35;100.00;101545.56;4995983;28;20653;-58
2021/12/13 09:03:36;;;;;;;5.67;5.17;;;;;;;7.41;100.00;101557.72;5006887;28;20204;-57
2021/12/13 09:06:07;;;;;;;5.57;4.97;;;;;;;7.50;100.00;101555.38;4997184;28;20274;-59
2021/12/13 09:08:39;;;;;;;5.60;5.03;;;;;;;7.58;100.00;101551.28;5021418;28;20655;-58
2021/12/13 09:11:31;;;;;;;6.67;4.97;;;;;;;7.67;100.00;101560.03;5013243;28;20189;-60
2021/12/13 09:13:59;;;;;;;5.80;4.83;;;;;;;7.72;100.00;101550.72;5007502;28;20672;-60
2021/12/13 09:16:45;;;;;;;6.73;5.63;;;;;;;7.77;100.00;101547.41;4993406;28;20223;-59
2021/12/13 09:19:19;;;;;;;5.97;5.37;;;;;;;7.86;100.00;101562.22;5016546;28;20231;-59
2021/12/13 09:22:23;;;;;;;6.13;5.47;;;;;;;7.98;100.00;101563.31;5020590;28;20188;-56
2021/12/13 09:25:06;;;;;;;6.37;5.77;;;;;;;8.05;100.00;101560.06;5017718;28;20202;-58
2021/12/13 09:27:34;;;;;;;6.20;5.60;;;;;;;8.16;100.00;101565.47;5005817;28;20731;-58
2021/12/13 09:30:06;;;;;;;5.90;5.37;;;;;;;8.24;100.00;101564.75;5002979;28;20204;-57
2021/12/13 09:33:03;;;;;;;6.40;5.80;;;;;;;8.36;100.00;101558.13;5003074;28;20590;-57
2021/12/13 09:35:34;;;;;;;6.67;5.97;;;;;;;8.46;100.00;101559.22;5001468;28;20198;-57
2021/12/13 09:38:20;;;;;;;6.00;5.13;;;;;;;8.52;100.00;101551.59;5031565;28;20690;-59
2021/12/13 09:41:10;;;;;;;6.73;5.83;;;;;;;8.59;100.00;101557.75;5030013;28;20303;-59
2021/12/13 09:43:57;;;;;;;6.03;5.40;;;;;;;8.66;100.00;101559.63;5011886;28;20584;-58
2021/12/13 09:46:34;;;;;;;6.07;5.47;;;;;;;8.75;100.00;101556.34;5006305;28;20548;-57
2021/12/13 09:49:04;;;;;;;6.03;5.20;;;;;;;8.78;99.96;101552.13;4991817;28;20670;-59
2021/12/13 09:51:36;;;;;;;5.27;4.73;;;;;;;8.78;99.61;101546.06;5003935;28;20241;-58
2021/12/13 09:54:06;;;;;;;5.03;4.57;;;;;;;8.69;99.53;101546.78;5030386;28;20206;-59
2021/12/13 09:56:37;;;;;;;5.23;4.73;;;;;;;8.59;99.56;101547.44;5011501;28;20215;-58
2021/12/13 09:59:13;;;;;;;4.80;4.40;;;;;;;8.47;99.57;101543.75;4989116;28;20227;-58
2021/12/13 10:01:39;;;;;;;5.00;4.50;;;;;;;8.37;99.75;101550.41;4987884;28;20238;-57
2021/12/13 10:04:19;;;;;;;4.87;4.43;;;;;;;8.29;99.71;101539.09;5000288;28;20206;-58
2021/12/13 10:06:57;;;;;;;5.27;4.77;;;;;;;8.23;99.69;101538.94;5013808;28;20207;-57
2021/12/13 10:09:31;;;;;;;4.83;4.33;;;;;;;8.16;99.48;101534.53;5008586;28;20593;-59
2021/12/13 10:12:23;;;;;;;5.37;4.73;;;;;;;8.13;99.81;101526.72;5017659;28;20756;-57
2021/12/13 10:14:55;;;;;;;4.67;4.27;;;;;;;8.12;99.82;101523.25;5011949;28;20181;-58
2021/12/13 10:17:24;;;;;;;4.63;4.20;;;;;;;8.10;99.81;101504.28;4990015;28;20212;-59
2021/12/13 10:19:54;;;;;;;4.63;4.23;;;;;;;8.09;100.00;101513.75;5017203;28;20221;-57
2021/12/13 10:22:30;;;;;;;6.30;4.90;;;;;;;8.09;99.96;101508.59;5004016;28;20247;-57
2021/12/13 10:25:02;;;;;;;7.63;6.47;;;;;;;8.05;99.82;101505.94;4988976;28;20202;-55
2021/12/13 10:27:29;;;;;;;5.70;5.13;;;;;;;8.01;99.96;101504.09;5003496;28;20657;-59
2021/12/13 10:29:58;;;;;;;6.60;5.57;;;;;;;7.92;99.85;101508.25;5018143;28;20732;-58
2021/12/13 10:32:28;;;;;;;6.10;5.50;;;;;;;7.90;100.00;101503.88;5011402;28;20192;-58
2021/12/13 10:34:59;;;;;;;6.23;5.50;;;;;;;7.88;100.00;101492.66;5017025;28;20219;-58
2021/12/13 10:37:32;;;;;;;6.77;6.10;;;;;;;7.90;100.00;101497.03;5015165;28;20230;-58
2021/12/13 10:40:05;;;;;;;7.00;6.40;;;;;;;7.90;100.00;101498.72;5002059;28;20202;-57
2021/12/13 10:42:35;;;;;;;6.80;6.10;;;;;;;7.92;100.00;101491.88;5003646;28;20195;-58
2021/12/13 10:45:06;;;;;;;8.17;6.23;;;;;;;7.93;100.00;101485.91;5024492;28;20196;-56
2021/12/13 10:47:40;;;;;;;6.27;5.63;;;;;;;7.98;100.00;101486.00;5020490;28;20199;-57
2021/12/13 10:50:14;;;;;;;5.60;5.00;;;;;;;8.00;100.00;101477.47;5007373;28;20196;-56
2021/12/13 10:52:43;;;;;;;6.20;5.60;;;;;;;8.05;100.00;101485.31;5023062;28;20225;-62
2021/12/13 10:55:16;;;;;;;6.00;5.40;;;;;;;8.10;100.00;101481.09;5006961;28;20202;-57
2021/12/13 10:57:47;;;;;;;5.47;4.93;;;;;;;8.13;100.00;101481.16;5004069;28;20219;-59
2021/12/13 11:00:21;;;;;;;6.17;5.57;;;;;;;8.17;100.00;101479.50;5001713;28;20207;-57
2021/12/13 11:02:53;;;;;;;6.50;5.33;;;;;;;8.22;100.00;101483.06;4988854;28;20206;-58
2021/12/13 11:05:21;;;;;;;6.10;5.60;;;;;;;8.25;100.00;101488.28;5000986;28;20244;-59
2021/12/13 11:07:48;;;;;;;6.83;6.13;;;;;;;8.21;100.00;101486.47;5003340;28;20224;-57
2021/12/13 11:10:21;;;;;;;6.77;6.07;;;;;;;8.16;100.00;101486.38;5008398;28;20633;-57
2021/12/13 11:12:52;;;;;;;6.63;6.03;;;;;;;8.12;100.00;101483.72;5020128;28;20249;-57
2021/12/13 11:15:22;;;;;;;6.10;5.50;;;;;;;8.12;100.00;101486.28;5004701;28;20211;-56
2021/12/13 11:17:48;;;;;;;6.77;5.80;;;;;;;8.15;100.00;101476.91;5002105;28;20215;-58
2021/12/13 11:20:18;;;;;;;6.53;5.63;;;;;;;8.21;100.00;101477.03;5023802;28;20195;-57
2021/12/13 11:22:46;;;;;;;6.13;5.53;;;;;;;8.26;100.00;101473.66;4999630;28;20204;-57
2021/12/13 11:25:19;;;;;;;6.37;5.60;;;;;;;8.30;100.00;101480.63;4989247;28;20199;-58
2021/12/13 11:27:45;;;;;;;5.87;5.30;;;;;;;8.38;100.00;101481.66;5000065;28;20657;-59
2021/12/13 11:30:20;;;;;;;7.23;6.07;;;;;;;8.48;100.00;101485.28;5004816;28;20195;-58
2021/12/13 11:32:58;;;;;;;6.53;5.83;;;;;;;8.57;100.00;101485.47;5020206;28;20195;-58
2021/12/13 11:36:02;;;;;;;7.77;6.20;;;;;;;8.66;100.00;101490.81;4987640;28;20216;-58
2021/12/13 11:39:03;;;;;;;7.17;6.47;;;;;;;8.75;100.00;101487.53;4985789;28;20255;-57
2021/12/13 11:41:59;;;;;;;6.93;6.07;;;;;;;8.75;100.00;101474.63;5002843;28;20180;-58
2021/12/13 11:45:02;;;;;;;7.07;6.33;;;;;;;8.72;100.00;101484.88;5010049;28;20615;-59
2021/12/13 11:47:32;;;;;;;6.80;6.10;;;;;;;8.71;100.00;101483.13;5003126;28;20292;-59
2021/12/13 11:50:10;;;;;;;6.67;5.97;;;;;;;8.70;100.00;101481.41;4994752;28;20242;-57
2021/12/13 11:53:23;;;;;;;7.93;6.77;;;;;;;8.68;100.00;101478.81;5013169;28;20202;-59
2021/12/13 11:56:19;;;;;;;8.53;7.17;;;;;;;8.61;100.00;101465.75;5040218;28;20285;-58
2021/12/13 11:59:27;;;;;;;7.67;6.97;;;;;;;8.58;100.00;101470.84;4996778;28;20601;-56
2021/12/13 12:02:15;;;;;;;8.30;7.07;;;;;;;8.54;100.00;101468.25;5006316;28;20203;-58
2021/12/13 12:05:05;;;;;;;7.97;6.63;;;;;;;8.59;100.00;101473.50;5025818;28;20200;-56
2021/12/13 12:07:52;;;;;;;7.07;6.37;;;;;;;8.65;100.00;101467.56;4995798;28;20287;-61
2021/12/13 12:10:25;;;;;;;7.80;6.93;;;;;;;8.69;100.00;101467.63;5012239;28;20208;-59